sensor_id;sensor_type;location;lat;lon;timestamp;P1;durP1;ratioP1;P2;durP2;ratioP2
25279;SDS011;13225;47.804;12.116;2023-04-07T00:01:22;17.48;;;8.27;;
25279;SDS011;13225;47.804;12.116;2023-04-07T00:03:47;15.63;;;8.45;;
25279;SDS011;13225;47.804;12.116;2023-04-07T00:06:13;15.30;;;8.55;;
25279;SDS011;13225;47.804;12.116;2023-04-07T00:08:38;17.58;;;8.80;;
25279;SDS011;13225;47.804;12.116;2023-04-07T00:11:04;17.58;;;8.55;;
25279;SDS011;13225;47.804;12.116;2023-04-07T00:13:30;17.27;;;9.10;;
25279;SDS011;13225;47.804;12.116;2023-04-07T00:15:55;16.00;;;8.55;;
25279;SDS011;13225;47.804;12.116;2023-04-07T00:18:21;14.65;;;9.10;;
25279;SDS011;13225;47.804;12.116;2023-04-07T00:20:47;16.15;;;9.50;;
25279;SDS011;13225;47.804;12.116;2023-04-07T00:23:12;15.48;;;8.52;;
25279;SDS011;13225;47.804;12.116;2023-04-07T00:25:38;15.13;;;8.30;;
25279;SDS011;13225;47.804;12.116;2023-04-07T00:28:04;16.42;;;8.70;;
25279;SDS011;13225;47.804;12.116;2023-04-07T00:30:29;14.45;;;8.48;;
25279;SDS011;13225;47.804;12.116;2023-04-07T00:32:55;15.73;;;8.95;;
25279;SDS011;13225;47.804;12.116;2023-04-07T00:35:21;16.70;;;8.23;;
25279;SDS011;13225;47.804;12.116;2023-04-07T00:37:46;12.82;;;7.97;;
25279;SDS011;13225;47.804;12.116;2023-04-07T00:40:12;15.02;;;8.07;;
25279;SDS011;13225;47.804;12.116;2023-04-07T00:42:38;14.25;;;8.32;;
25279;SDS011;13225;47.804;12.116;2023-04-07T00:45:03;15.25;;;8.30;;
25279;SDS011;13225;47.804;12.116;2023-04-07T00:47:30;16.58;;;8.45;;
25279;SDS011;13225;47.804;12.116;2023-04-07T00:49:55;16.95;;;8.40;;
25279;SDS011;13225;47.804;12.116;2023-04-07T00:52:21;15.98;;;8.43;;
25279;SDS011;13225;47.804;12.116;2023-04-07T00:54:53;16.05;;;8.63;;
25279;SDS011;13225;47.804;12.116;2023-04-07T00:57:19;15.68;;;9.15;;
25279;SDS011;13225;47.804;12.116;2023-04-07T00:59:46;20.75;;;9.77;;
25279;SDS011;13225;47.804;12.116;2023-04-07T01:02:17;21.10;;;9.93;;
25279;SDS011;13225;47.804;12.116;2023-04-07T01:04:54;19.55;;;9.88;;
25279;SDS011;13225;47.804;12.116;2023-04-07T01:07:30;18.75;;;10.02;;
25279;SDS011;13225;47.804;12.116;2023-04-07T01:10:11;18.55;;;10.00;;
25279;SDS011;13225;47.804;12.116;2023-04-07T01:12:43;17.98;;;9.35;;
25279;SDS011;13225;47.804;12.116;2023-04-07T01:15:17;16.08;;;9.25;;
25279;SDS011;13225;47.804;12.116;2023-04-07T01:17:47;21.00;;;10.00;;
25279;SDS011;13225;47.804;12.116;2023-04-07T01:20:25;15.82;;;9.48;;
25279;SDS011;13225;47.804;12.116;2023-04-07T01:22:55;18.65;;;10.02;;
25279;SDS011;13225;47.804;12.116;2023-04-07T01:25:37;16.10;;;8.95;;
25279;SDS011;13225;47.804;12.116;2023-04-07T01:28:34;21.95;;;9.75;;
25279;SDS011;13225;47.804;12.116;2023-04-07T01:31:02;19.65;;;9.63;;
25279;SDS011;13225;47.804;12.116;2023-04-07T01:33:30;16.80;;;9.38;;
25279;SDS011;13225;47.804;12.116;2023-04-07T01:35:58;18.92;;;9.82;;
25279;SDS011;13225;47.804;12.116;2023-04-07T01:38:25;19.45;;;10.43;;
25279;SDS011;13225;47.804;12.116;2023-04-07T01:40:53;18.00;;;9.18;;
25279;SDS011;13225;47.804;12.116;2023-04-07T01:43:20;17.02;;;9.38;;
25279;SDS011;13225;47.804;12.116;2023-04-07T01:45:47;17.90;;;9.60;;
25279;SDS011;13225;47.804;12.116;2023-04-07T01:48:14;17.40;;;9.90;;
25279;SDS011;13225;47.804;12.116;2023-04-07T01:50:40;17.15;;;8.70;;
25279;SDS011;13225;47.804;12.116;2023-04-07T01:53:08;17.17;;;8.45;;
25279;SDS011;13225;47.804;12.116;2023-04-07T01:55:34;16.58;;;8.57;;
25279;SDS011;13225;47.804;12.116;2023-04-07T01:58:04;13.00;;;8.02;;
25279;SDS011;13225;47.804;12.116;2023-04-07T02:00:31;15.82;;;7.95;;
25279;SDS011;13225;47.804;12.116;2023-04-07T02:02:58;14.30;;;7.30;;
25279;SDS011;13225;47.804;12.116;2023-04-07T02:05:48;15.35;;;8.45;;
25279;SDS011;13225;47.804;12.116;2023-04-07T02:08:16;14.52;;;7.97;;
25279;SDS011;13225;47.804;12.116;2023-04-07T02:10:45;15.77;;;8.02;;
25279;SDS011;13225;47.804;12.116;2023-04-07T02:13:14;19.95;;;7.95;;
25279;SDS011;13225;47.804;12.116;2023-04-07T02:15:42;13.45;;;8.25;;
25279;SDS011;13225;47.804;12.116;2023-04-07T02:18:09;15.45;;;8.65;;
25279;SDS011;13225;47.804;12.116;2023-04-07T02:20:38;14.93;;;7.90;;
25279;SDS011;13225;47.804;12.116;2023-04-07T02:23:06;14.52;;;8.10;;
25279;SDS011;13225;47.804;12.116;2023-04-07T02:25:32;14.77;;;7.95;;
25279;SDS011;13225;47.804;12.116;2023-04-07T02:27:58;15.93;;;7.90;;
25279;SDS011;13225;47.804;12.116;2023-04-07T02:30:25;16.08;;;8.13;;
25279;SDS011;13225;47.804;12.116;2023-04-07T02:32:52;13.00;;;8.10;;
25279;SDS011;13225;47.804;12.116;2023-04-07T02:35:18;15.55;;;8.70;;
25279;SDS011;13225;47.804;12.116;2023-04-07T02:37:44;13.90;;;8.52;;
25279;SDS011;13225;47.804;12.116;2023-04-07T02:40:11;14.80;;;8.25;;
25279;SDS011;13225;47.804;12.116;2023-04-07T02:42:37;14.38;;;8.52;;
25279;SDS011;13225;47.804;12.116;2023-04-07T02:45:03;14.82;;;8.43;;
25279;SDS011;13225;47.804;12.116;2023-04-07T02:47:29;17.88;;;9.00;;
25279;SDS011;13225;47.804;12.116;2023-04-07T02:49:54;17.27;;;9.18;;
25279;SDS011;13225;47.804;12.116;2023-04-07T02:52:20;15.88;;;9.05;;
25279;SDS011;13225;47.804;12.116;2023-04-07T02:54:46;17.85;;;9.52;;
25279;SDS011;13225;47.804;12.116;2023-04-07T02:57:11;17.90;;;9.63;;
25279;SDS011;13225;47.804;12.116;2023-04-07T02:59:38;15.95;;;9.35;;
25279;SDS011;13225;47.804;12.116;2023-04-07T03:02:05;17.95;;;9.00;;
25279;SDS011;13225;47.804;12.116;2023-04-07T03:04:30;14.35;;;8.05;;
25279;SDS011;13225;47.804;12.116;2023-04-07T03:06:56;15.63;;;8.32;;
25279;SDS011;13225;47.804;12.116;2023-04-07T03:09:22;15.23;;;8.00;;
25279;SDS011;13225;47.804;12.116;2023-04-07T03:11:47;14.55;;;7.97;;
25279;SDS011;13225;47.804;12.116;2023-04-07T03:14:13;14.57;;;8.05;;
25279;SDS011;13225;47.804;12.116;2023-04-07T03:16:40;13.20;;;7.35;;
25279;SDS011;13225;47.804;12.116;2023-04-07T03:19:06;15.55;;;9.82;;
25279;SDS011;13225;47.804;12.116;2023-04-07T03:21:32;14.07;;;8.98;;
25279;SDS011;13225;47.804;12.116;2023-04-07T03:23:58;13.18;;;7.60;;
25279;SDS011;13225;47.804;12.116;2023-04-07T03:26:24;14.40;;;8.40;;
25279;SDS011;13225;47.804;12.116;2023-04-07T03:28:49;19.50;;;8.88;;
25279;SDS011;13225;47.804;12.116;2023-04-07T03:31:15;15.18;;;8.13;;
25279;SDS011;13225;47.804;12.116;2023-04-07T03:33:40;14.57;;;7.80;;
25279;SDS011;13225;47.804;12.116;2023-04-07T03:36:06;12.68;;;7.50;;
25279;SDS011;13225;47.804;12.116;2023-04-07T03:38:32;14.02;;;8.15;;
25279;SDS011;13225;47.804;12.116;2023-04-07T03:40:57;12.73;;;7.55;;
25279;SDS011;13225;47.804;12.116;2023-04-07T03:43:23;13.00;;;7.30;;
25279;SDS011;13225;47.804;12.116;2023-04-07T03:45:49;15.85;;;7.57;;
25279;SDS011;13225;47.804;12.116;2023-04-07T03:48:16;11.95;;;6.90;;
25279;SDS011;13225;47.804;12.116;2023-04-07T03:50:42;10.82;;;7.50;;
25279;SDS011;13225;47.804;12.116;2023-04-07T03:53:08;12.38;;;7.68;;
25279;SDS011;13225;47.804;12.116;2023-04-07T03:55:34;13.27;;;7.60;;
25279;SDS011;13225;47.804;12.116;2023-04-07T03:58:00;11.05;;;7.18;;
25279;SDS011;13225;47.804;12.116;2023-04-07T04:00:26;11.95;;;6.82;;
25279;SDS011;13225;47.804;12.116;2023-04-07T04:02:52;12.23;;;7.28;;
25279;SDS011;13225;47.804;12.116;2023-04-07T04:05:18;11.27;;;6.75;;
25279;SDS011;13225;47.804;12.116;2023-04-07T04:07:43;12.02;;;6.95;;
25279;SDS011;13225;47.804;12.116;2023-04-07T04:10:09;17.20;;;7.55;;
25279;SDS011;13225;47.804;12.116;2023-04-07T04:12:35;11.88;;;7.38;;
25279;SDS011;13225;47.804;12.116;2023-04-07T04:15:01;12.02;;;7.05;;
25279;SDS011;13225;47.804;12.116;2023-04-07T04:17:26;12.45;;;6.95;;
25279;SDS011;13225;47.804;12.116;2023-04-07T04:19:52;13.13;;;6.90;;
25279;SDS011;13225;47.804;12.116;2023-04-07T04:22:18;14.43;;;7.60;;
25279;SDS011;13225;47.804;12.116;2023-04-07T04:24:44;12.45;;;7.47;;
25279;SDS011;13225;47.804;12.116;2023-04-07T04:27:09;12.63;;;7.32;;
25279;SDS011;13225;47.804;12.116;2023-04-07T04:29:35;14.07;;;7.65;;
25279;SDS011;13225;47.804;12.116;2023-04-07T04:32:01;13.50;;;7.00;;
25279;SDS011;13225;47.804;12.116;2023-04-07T04:34:26;12.52;;;7.65;;
25279;SDS011;13225;47.804;12.116;2023-04-07T04:36:52;13.35;;;7.28;;
25279;SDS011;13225;47.804;12.116;2023-04-07T04:39:17;10.60;;;6.80;;
25279;SDS011;13225;47.804;12.116;2023-04-07T04:41:43;14.25;;;7.45;;
25279;SDS011;13225;47.804;12.116;2023-04-07T04:44:10;14.07;;;7.53;;
25279;SDS011;13225;47.804;12.116;2023-04-07T04:46:36;13.07;;;7.47;;
25279;SDS011;13225;47.804;12.116;2023-04-07T04:49:01;13.88;;;8.43;;
25279;SDS011;13225;47.804;12.116;2023-04-07T04:51:27;14.85;;;8.15;;
25279;SDS011;13225;47.804;12.116;2023-04-07T04:53:53;16.02;;;7.93;;
25279;SDS011;13225;47.804;12.116;2023-04-07T04:56:18;12.32;;;7.88;;
25279;SDS011;13225;47.804;12.116;2023-04-07T04:58:45;17.05;;;8.63;;
25279;SDS011;13225;47.804;12.116;2023-04-07T05:01:11;15.25;;;8.57;;
25279;SDS011;13225;47.804;12.116;2023-04-07T05:03:37;15.15;;;8.32;;
25279;SDS011;13225;47.804;12.116;2023-04-07T05:06:03;13.18;;;8.48;;
25279;SDS011;13225;47.804;12.116;2023-04-07T05:08:29;14.30;;;8.48;;
25279;SDS011;13225;47.804;12.116;2023-04-07T05:10:54;17.70;;;9.20;;
25279;SDS011;13225;47.804;12.116;2023-04-07T05:13:20;15.82;;;9.32;;
25279;SDS011;13225;47.804;12.116;2023-04-07T05:15:46;16.73;;;9.00;;
25279;SDS011;13225;47.804;12.116;2023-04-07T05:18:11;15.95;;;8.55;;
25279;SDS011;13225;47.804;12.116;2023-04-07T05:20:37;15.45;;;8.02;;
25279;SDS011;13225;47.804;12.116;2023-04-07T05:23:03;12.68;;;7.70;;
25279;SDS011;13225;47.804;12.116;2023-04-07T05:25:29;14.52;;;7.90;;
25279;SDS011;13225;47.804;12.116;2023-04-07T05:27:54;12.50;;;7.47;;
25279;SDS011;13225;47.804;12.116;2023-04-07T05:30:21;13.02;;;7.25;;
25279;SDS011;13225;47.804;12.116;2023-04-07T05:32:47;10.98;;;7.13;;
25279;SDS011;13225;47.804;12.116;2023-04-07T05:35:12;13.43;;;7.40;;
25279;SDS011;13225;47.804;12.116;2023-04-07T05:37:38;10.75;;;7.25;;
25279;SDS011;13225;47.804;12.116;2023-04-07T05:40:04;13.32;;;7.25;;
25279;SDS011;13225;47.804;12.116;2023-04-07T05:42:30;12.52;;;7.22;;
25279;SDS011;13225;47.804;12.116;2023-04-07T05:44:56;12.68;;;6.97;;
25279;SDS011;13225;47.804;12.116;2023-04-07T05:47:22;12.82;;;7.60;;
25279;SDS011;13225;47.804;12.116;2023-04-07T05:49:47;13.55;;;7.40;;
25279;SDS011;13225;47.804;12.116;2023-04-07T05:52:13;13.20;;;7.50;;
25279;SDS011;13225;47.804;12.116;2023-04-07T05:54:38;11.63;;;6.57;;
25279;SDS011;13225;47.804;12.116;2023-04-07T05:57:05;11.40;;;7.53;;
25279;SDS011;13225;47.804;12.116;2023-04-07T05:59:34;11.55;;;6.85;;
25279;SDS011;13225;47.804;12.116;2023-04-07T06:02:00;12.05;;;7.20;;
25279;SDS011;13225;47.804;12.116;2023-04-07T06:04:27;11.60;;;7.38;;
25279;SDS011;13225;47.804;12.116;2023-04-07T06:06:52;14.13;;;7.82;;
25279;SDS011;13225;47.804;12.116;2023-04-07T06:09:19;14.70;;;7.60;;
25279;SDS011;13225;47.804;12.116;2023-04-07T06:11:45;11.80;;;7.72;;
25279;SDS011;13225;47.804;12.116;2023-04-07T06:14:11;16.45;;;7.85;;
25279;SDS011;13225;47.804;12.116;2023-04-07T06:16:37;13.20;;;7.85;;
25279;SDS011;13225;47.804;12.116;2023-04-07T06:19:02;15.82;;;8.23;;
25279;SDS011;13225;47.804;12.116;2023-04-07T06:21:28;14.23;;;8.13;;
25279;SDS011;13225;47.804;12.116;2023-04-07T06:23:54;14.57;;;7.45;;
25279;SDS011;13225;47.804;12.116;2023-04-07T06:26:20;12.88;;;7.68;;
25279;SDS011;13225;47.804;12.116;2023-04-07T06:28:45;12.05;;;6.93;;
25279;SDS011;13225;47.804;12.116;2023-04-07T06:31:11;13.35;;;7.35;;
25279;SDS011;13225;47.804;12.116;2023-04-07T06:33:37;11.18;;;7.40;;
25279;SDS011;13225;47.804;12.116;2023-04-07T06:36:02;12.00;;;7.38;;
25279;SDS011;13225;47.804;12.116;2023-04-07T06:38:28;13.35;;;7.95;;
25279;SDS011;13225;47.804;12.116;2023-04-07T06:40:54;13.68;;;7.43;;
25279;SDS011;13225;47.804;12.116;2023-04-07T06:43:19;11.18;;;7.22;;
25279;SDS011;13225;47.804;12.116;2023-04-07T06:45:45;13.50;;;7.68;;
25279;SDS011;13225;47.804;12.116;2023-04-07T06:48:10;13.43;;;7.10;;
25279;SDS011;13225;47.804;12.116;2023-04-07T06:50:36;12.32;;;7.20;;
25279;SDS011;13225;47.804;12.116;2023-04-07T06:53:02;14.93;;;8.18;;
25279;SDS011;13225;47.804;12.116;2023-04-07T06:55:28;11.80;;;7.60;;
25279;SDS011;13225;47.804;12.116;2023-04-07T06:57:54;11.63;;;7.25;;
25279;SDS011;13225;47.804;12.116;2023-04-07T07:00:19;15.45;;;8.25;;
25279;SDS011;13225;47.804;12.116;2023-04-07T07:02:47;13.32;;;8.10;;
25279;SDS011;13225;47.804;12.116;2023-04-07T07:05:13;14.23;;;8.02;;
25279;SDS011;13225;47.804;12.116;2023-04-07T07:07:38;14.40;;;8.20;;
25279;SDS011;13225;47.804;12.116;2023-04-07T07:10:05;13.05;;;7.72;;
25279;SDS011;13225;47.804;12.116;2023-04-07T07:12:32;14.73;;;8.10;;
25279;SDS011;13225;47.804;12.116;2023-04-07T07:14:58;12.75;;;8.15;;
25279;SDS011;13225;47.804;12.116;2023-04-07T07:17:23;15.18;;;8.25;;
25279;SDS011;13225;47.804;12.116;2023-04-07T07:19:49;15.18;;;7.80;;
25279;SDS011;13225;47.804;12.116;2023-04-07T07:22:14;12.27;;;7.88;;
25279;SDS011;13225;47.804;12.116;2023-04-07T07:24:40;11.95;;;8.07;;
25279;SDS011;13225;47.804;12.116;2023-04-07T07:27:06;13.30;;;8.15;;
25279;SDS011;13225;47.804;12.116;2023-04-07T07:29:31;15.73;;;8.25;;
25279;SDS011;13225;47.804;12.116;2023-04-07T07:31:57;12.02;;;7.88;;
25279;SDS011;13225;47.804;12.116;2023-04-07T07:34:22;13.05;;;7.68;;
25279;SDS011;13225;47.804;12.116;2023-04-07T07:36:48;13.55;;;8.57;;
25279;SDS011;13225;47.804;12.116;2023-04-07T07:39:14;11.32;;;7.57;;
25279;SDS011;13225;47.804;12.116;2023-04-07T07:41:39;13.32;;;7.82;;
25279;SDS011;13225;47.804;12.116;2023-04-07T07:44:05;14.32;;;8.43;;
25279;SDS011;13225;47.804;12.116;2023-04-07T07:46:31;10.82;;;7.43;;
25279;SDS011;13225;47.804;12.116;2023-04-07T07:48:57;10.45;;;7.00;;
25279;SDS011;13225;47.804;12.116;2023-04-07T07:51:22;12.88;;;7.78;;
25279;SDS011;13225;47.804;12.116;2023-04-07T07:53:48;12.50;;;8.25;;
25279;SDS011;13225;47.804;12.116;2023-04-07T07:56:13;11.38;;;7.82;;
25279;SDS011;13225;47.804;12.116;2023-04-07T07:58:39;12.25;;;7.95;;
25279;SDS011;13225;47.804;12.116;2023-04-07T08:01:05;12.57;;;7.57;;
25279;SDS011;13225;47.804;12.116;2023-04-07T08:03:31;11.35;;;7.47;;
25279;SDS011;13225;47.804;12.116;2023-04-07T08:05:56;12.35;;;8.60;;
25279;SDS011;13225;47.804;12.116;2023-04-07T08:08:22;14.20;;;8.93;;
25279;SDS011;13225;47.804;12.116;2023-04-07T08:10:47;14.05;;;8.52;;
25279;SDS011;13225;47.804;12.116;2023-04-07T08:13:13;11.93;;;7.00;;
25279;SDS011;13225;47.804;12.116;2023-04-07T08:15:38;10.88;;;6.85;;
25279;SDS011;13225;47.804;12.116;2023-04-07T08:18:04;10.75;;;7.18;;
25279;SDS011;13225;47.804;12.116;2023-04-07T08:20:31;13.23;;;8.63;;
25279;SDS011;13225;47.804;12.116;2023-04-07T08:22:58;12.57;;;8.23;;
25279;SDS011;13225;47.804;12.116;2023-04-07T08:25:25;12.57;;;7.28;;
25279;SDS011;13225;47.804;12.116;2023-04-07T08:27:52;11.07;;;7.43;;
25279;SDS011;13225;47.804;12.116;2023-04-07T08:30:17;13.48;;;8.10;;
25279;SDS011;13225;47.804;12.116;2023-04-07T08:32:45;13.10;;;7.65;;
25279;SDS011;13225;47.804;12.116;2023-04-07T08:35:10;12.05;;;7.28;;
25279;SDS011;13225;47.804;12.116;2023-04-07T08:37:36;16.00;;;7.82;;
25279;SDS011;13225;47.804;12.116;2023-04-07T08:40:03;12.98;;;7.88;;
25279;SDS011;13225;47.804;12.116;2023-04-07T08:42:30;12.43;;;7.32;;
25279;SDS011;13225;47.804;12.116;2023-04-07T08:45:01;12.20;;;7.75;;
25279;SDS011;13225;47.804;12.116;2023-04-07T08:47:32;12.68;;;7.18;;
25279;SDS011;13225;47.804;12.116;2023-04-07T08:50:03;11.35;;;7.47;;
25279;SDS011;13225;47.804;12.116;2023-04-07T08:52:43;14.60;;;8.07;;
25279;SDS011;13225;47.804;12.116;2023-04-07T08:55:10;11.55;;;7.88;;
25279;SDS011;13225;47.804;12.116;2023-04-07T08:57:36;15.20;;;9.35;;
25279;SDS011;13225;47.804;12.116;2023-04-07T09:00:03;15.65;;;8.93;;
25279;SDS011;13225;47.804;12.116;2023-04-07T09:02:33;11.75;;;8.07;;
25279;SDS011;13225;47.804;12.116;2023-04-07T09:05:04;11.88;;;7.90;;
25279;SDS011;13225;47.804;12.116;2023-04-07T09:07:31;11.98;;;7.45;;
25279;SDS011;13225;47.804;12.116;2023-04-07T09:09:58;16.80;;;9.27;;
25279;SDS011;13225;47.804;12.116;2023-04-07T09:12:26;13.32;;;8.52;;
25279;SDS011;13225;47.804;12.116;2023-04-07T09:14:52;12.95;;;7.65;;
25279;SDS011;13225;47.804;12.116;2023-04-07T09:17:18;14.43;;;9.82;;
25279;SDS011;13225;47.804;12.116;2023-04-07T09:19:45;12.05;;;7.90;;
25279;SDS011;13225;47.804;12.116;2023-04-07T09:22:11;12.10;;;7.93;;
25279;SDS011;13225;47.804;12.116;2023-04-07T09:24:38;11.25;;;7.47;;
25279;SDS011;13225;47.804;12.116;2023-04-07T09:27:11;10.93;;;7.40;;
25279;SDS011;13225;47.804;12.116;2023-04-07T09:29:42;11.82;;;7.55;;
25279;SDS011;13225;47.804;12.116;2023-04-07T09:32:09;12.23;;;7.20;;
25279;SDS011;13225;47.804;12.116;2023-04-07T09:34:37;13.38;;;7.95;;
25279;SDS011;13225;47.804;12.116;2023-04-07T09:37:05;11.18;;;7.57;;
25279;SDS011;13225;47.804;12.116;2023-04-07T09:39:32;13.65;;;8.15;;
25279;SDS011;13225;47.804;12.116;2023-04-07T09:41:58;12.18;;;7.80;;
25279;SDS011;13225;47.804;12.116;2023-04-07T09:44:30;11.43;;;7.65;;
25279;SDS011;13225;47.804;12.116;2023-04-07T09:47:05;11.18;;;7.53;;
25279;SDS011;13225;47.804;12.116;2023-04-07T09:49:31;12.20;;;7.90;;
25279;SDS011;13225;47.804;12.116;2023-04-07T09:52:01;12.50;;;7.55;;
25279;SDS011;13225;47.804;12.116;2023-04-07T09:54:32;16.80;;;8.18;;
25279;SDS011;13225;47.804;12.116;2023-04-07T09:57:00;11.32;;;7.65;;
25279;SDS011;13225;47.804;12.116;2023-04-07T09:59:27;11.57;;;7.72;;
25279;SDS011;13225;47.804;12.116;2023-04-07T10:01:53;11.30;;;7.07;;
25279;SDS011;13225;47.804;12.116;2023-04-07T10:04:19;9.82;;;7.05;;
25279;SDS011;13225;47.804;12.116;2023-04-07T10:06:46;11.90;;;7.20;;
25279;SDS011;13225;47.804;12.116;2023-04-07T10:09:12;11.68;;;7.88;;
25279;SDS011;13225;47.804;12.116;2023-04-07T10:11:41;10.27;;;7.68;;
25279;SDS011;13225;47.804;12.116;2023-04-07T10:14:11;12.20;;;7.57;;
25279;SDS011;13225;47.804;12.116;2023-04-07T10:16:37;11.45;;;8.02;;
25279;SDS011;13225;47.804;12.116;2023-04-07T10:19:03;10.43;;;7.68;;
25279;SDS011;13225;47.804;12.116;2023-04-07T10:21:30;13.25;;;7.80;;
25279;SDS011;13225;47.804;12.116;2023-04-07T10:24:04;11.82;;;7.78;;
25279;SDS011;13225;47.804;12.116;2023-04-07T10:27:05;10.30;;;7.20;;
25279;SDS011;13225;47.804;12.116;2023-04-07T10:29:37;11.52;;;7.57;;
25279;SDS011;13225;47.804;12.116;2023-04-07T10:32:08;10.43;;;6.78;;
25279;SDS011;13225;47.804;12.116;2023-04-07T10:37:18;10.50;;;6.95;;
25279;SDS011;13225;47.804;12.116;2023-04-07T10:39:50;11.90;;;7.53;;
25279;SDS011;13225;47.804;12.116;2023-04-07T10:45:05;16.45;;;9.45;;
25279;SDS011;13225;47.804;12.116;2023-04-07T10:47:32;11.60;;;7.72;;
25279;SDS011;13225;47.804;12.116;2023-04-07T10:50:17;8.60;;;6.90;;
25279;SDS011;13225;47.804;12.116;2023-04-07T10:52:48;11.90;;;7.95;;
25279;SDS011;13225;47.804;12.116;2023-04-07T10:55:32;8.98;;;5.35;;
25279;SDS011;13225;47.804;12.116;2023-04-07T11:03:29;6.75;;;5.00;;
25279;SDS011;13225;47.804;12.116;2023-04-07T11:06:07;11.27;;;6.82;;
25279;SDS011;13225;47.804;12.116;2023-04-07T11:08:44;4.95;;;3.80;;
25279;SDS011;13225;47.804;12.116;2023-04-07T11:11:12;8.77;;;5.90;;
25279;SDS011;13225;47.804;12.116;2023-04-07T11:13:42;8.82;;;5.15;;
25279;SDS011;13225;47.804;12.116;2023-04-07T11:16:10;11.45;;;6.57;;
25279;SDS011;13225;47.804;12.116;2023-04-07T11:18:36;6.53;;;4.85;;
25279;SDS011;13225;47.804;12.116;2023-04-07T11:21:03;9.18;;;4.78;;
25279;SDS011;13225;47.804;12.116;2023-04-07T11:23:36;7.00;;;4.95;;
25279;SDS011;13225;47.804;12.116;2023-04-07T11:26:09;8.52;;;5.32;;
25279;SDS011;13225;47.804;12.116;2023-04-07T11:28:46;6.45;;;4.75;;
25279;SDS011;13225;47.804;12.116;2023-04-07T11:31:28;8.10;;;4.05;;
25279;SDS011;13225;47.804;12.116;2023-04-07T11:33:56;8.65;;;5.35;;
25279;SDS011;13225;47.804;12.116;2023-04-07T11:36:36;7.47;;;5.03;;
25279;SDS011;13225;47.804;12.116;2023-04-07T11:39:03;6.15;;;4.85;;
25279;SDS011;13225;47.804;12.116;2023-04-07T11:41:30;7.72;;;4.70;;
25279;SDS011;13225;47.804;12.116;2023-04-07T11:44:06;5.38;;;4.00;;
25279;SDS011;13225;47.804;12.116;2023-04-07T11:46:34;8.50;;;5.03;;
25279;SDS011;13225;47.804;12.116;2023-04-07T11:49:34;7.75;;;5.20;;
25279;SDS011;13225;47.804;12.116;2023-04-07T11:52:00;7.22;;;5.45;;
25279;SDS011;13225;47.804;12.116;2023-04-07T11:54:37;7.20;;;4.55;;
25279;SDS011;13225;47.804;12.116;2023-04-07T11:57:04;8.73;;;5.30;;
25279;SDS011;13225;47.804;12.116;2023-04-07T11:59:30;7.28;;;4.55;;
25279;SDS011;13225;47.804;12.116;2023-04-07T12:01:56;5.72;;;4.40;;
25279;SDS011;13225;47.804;12.116;2023-04-07T12:04:22;7.03;;;5.03;;
25279;SDS011;13225;47.804;12.116;2023-04-07T12:06:47;6.57;;;5.32;;
25279;SDS011;13225;47.804;12.116;2023-04-07T12:09:27;7.78;;;5.57;;
25279;SDS011;13225;47.804;12.116;2023-04-07T12:11:58;7.10;;;4.80;;
25279;SDS011;13225;47.804;12.116;2023-04-07T12:14:25;5.80;;;4.53;;
25279;SDS011;13225;47.804;12.116;2023-04-07T12:16:53;7.25;;;5.20;;
25279;SDS011;13225;47.804;12.116;2023-04-07T12:19:26;6.15;;;4.68;;
25279;SDS011;13225;47.804;12.116;2023-04-07T12:21:52;6.05;;;4.38;;
25279;SDS011;13225;47.804;12.116;2023-04-07T12:24:18;6.35;;;4.65;;
25279;SDS011;13225;47.804;12.116;2023-04-07T12:26:44;6.82;;;4.57;;
25279;SDS011;13225;47.804;12.116;2023-04-07T12:29:09;6.00;;;4.30;;
25279;SDS011;13225;47.804;12.116;2023-04-07T12:31:35;8.57;;;5.10;;
25279;SDS011;13225;47.804;12.116;2023-04-07T12:34:01;7.85;;;4.57;;
25279;SDS011;13225;47.804;12.116;2023-04-07T12:36:27;5.72;;;4.68;;
25279;SDS011;13225;47.804;12.116;2023-04-07T12:38:53;5.80;;;4.70;;
25279;SDS011;13225;47.804;12.116;2023-04-07T12:41:20;7.53;;;5.00;;
25279;SDS011;13225;47.804;12.116;2023-04-07T12:43:45;6.00;;;4.85;;
25279;SDS011;13225;47.804;12.116;2023-04-07T12:46:11;7.80;;;5.00;;
25279;SDS011;13225;47.804;12.116;2023-04-07T12:48:37;6.60;;;4.80;;
25279;SDS011;13225;47.804;12.116;2023-04-07T12:51:02;7.07;;;5.30;;
25279;SDS011;13225;47.804;12.116;2023-04-07T12:53:28;5.60;;;4.97;;
25279;SDS011;13225;47.804;12.116;2023-04-07T12:55:57;5.80;;;5.05;;
25279;SDS011;13225;47.804;12.116;2023-04-07T12:58:23;6.20;;;4.90;;
25279;SDS011;13225;47.804;12.116;2023-04-07T13:00:50;6.43;;;5.05;;
25279;SDS011;13225;47.804;12.116;2023-04-07T13:03:16;7.40;;;4.82;;
25279;SDS011;13225;47.804;12.116;2023-04-07T13:05:42;5.95;;;5.10;;
25279;SDS011;13225;47.804;12.116;2023-04-07T13:08:07;7.55;;;5.07;;
25279;SDS011;13225;47.804;12.116;2023-04-07T13:10:34;7.13;;;4.80;;
25279;SDS011;13225;47.804;12.116;2023-04-07T13:13:00;6.60;;;5.30;;
25279;SDS011;13225;47.804;12.116;2023-04-07T13:15:28;5.88;;;4.53;;
25279;SDS011;13225;47.804;12.116;2023-04-07T13:17:54;6.28;;;5.10;;
25279;SDS011;13225;47.804;12.116;2023-04-07T13:20:22;6.45;;;4.25;;
25279;SDS011;13225;47.804;12.116;2023-04-07T13:22:50;5.05;;;4.13;;
25279;SDS011;13225;47.804;12.116;2023-04-07T13:25:16;5.05;;;4.35;;
25279;SDS011;13225;47.804;12.116;2023-04-07T13:27:41;5.68;;;4.30;;
25279;SDS011;13225;47.804;12.116;2023-04-07T13:30:07;5.57;;;4.40;;
25279;SDS011;13225;47.804;12.116;2023-04-07T13:32:33;5.78;;;3.92;;
25279;SDS011;13225;47.804;12.116;2023-04-07T13:35:02;6.45;;;4.43;;
25279;SDS011;13225;47.804;12.116;2023-04-07T13:37:28;13.85;;;8.55;;
25279;SDS011;13225;47.804;12.116;2023-04-07T13:39:53;49.33;;;26.60;;
25279;SDS011;13225;47.804;12.116;2023-04-07T13:42:19;19.52;;;12.73;;
25279;SDS011;13225;47.804;12.116;2023-04-07T13:44:45;14.15;;;7.35;;
25279;SDS011;13225;47.804;12.116;2023-04-07T13:47:12;6.15;;;4.65;;
25279;SDS011;13225;47.804;12.116;2023-04-07T13:49:43;6.20;;;3.88;;
25279;SDS011;13225;47.804;12.116;2023-04-07T13:52:12;6.63;;;4.35;;
25279;SDS011;13225;47.804;12.116;2023-04-07T13:54:38;5.80;;;4.15;;
25279;SDS011;13225;47.804;12.116;2023-04-07T13:57:03;7.00;;;5.05;;
25279;SDS011;13225;47.804;12.116;2023-04-07T13:59:29;8.93;;;5.28;;
25279;SDS011;13225;47.804;12.116;2023-04-07T14:01:55;10.63;;;7.18;;
25279;SDS011;13225;47.804;12.116;2023-04-07T14:04:21;9.43;;;5.18;;
25279;SDS011;13225;47.804;12.116;2023-04-07T14:06:46;7.88;;;4.13;;
25279;SDS011;13225;47.804;12.116;2023-04-07T14:09:12;6.47;;;4.30;;
25279;SDS011;13225;47.804;12.116;2023-04-07T14:11:38;8.02;;;5.45;;
25279;SDS011;13225;47.804;12.116;2023-04-07T14:14:03;6.93;;;5.30;;
25279;SDS011;13225;47.804;12.116;2023-04-07T14:16:30;6.03;;;4.55;;
25279;SDS011;13225;47.804;12.116;2023-04-07T14:18:55;16.40;;;11.63;;
25279;SDS011;13225;47.804;12.116;2023-04-07T14:21:22;20.45;;;17.75;;
25279;SDS011;13225;47.804;12.116;2023-04-07T14:23:48;8.98;;;6.70;;
25279;SDS011;13225;47.804;12.116;2023-04-07T14:26:14;5.68;;;4.40;;
25279;SDS011;13225;47.804;12.116;2023-04-07T14:28:39;5.65;;;4.30;;
25279;SDS011;13225;47.804;12.116;2023-04-07T14:31:05;6.78;;;4.78;;
25279;SDS011;13225;47.804;12.116;2023-04-07T14:33:35;6.40;;;4.82;;
25279;SDS011;13225;47.804;12.116;2023-04-07T14:36:01;7.55;;;5.18;;